Main page

Airports :

San Fernando, Argentina

San Fernando Airport

latitude: 34-27-11S, longitude: 058-35-23W, elevation: 3 m

Current weather observation

The report was made 1 hour and 5 minutes ago, at 12:00 UTC
Wind 3 kt from the East
Temperature 15°C
Humidity 77%
Pressure 1023 hPa
Visibility 10 km or more
Scattered clouds at a height of 2000 ft

METAR: SADF 211200Z 09003KT 9999 SCT020 15/11 Q1023

Time: 10:05 (13:05 UTC)


The report was made 2 hours and 5 minutes ago, at 11:00 UTC
Forecast valid from 21 at 12 UTC to 22 at 12 UTC
Wind 5 kt from the Southeast
Visibility 10 km or more
Scattered clouds at a height of 2000 ft
from 21 at 18 UTC to 21 at 20 UTC
Wind 10 kt from the East
from 22 at 02 UTC to 22 at 04 UTC
Wind 10 kt from the North/Northeast
Probability 30% :
from 22 at 06 UTC to 22 at 11 UTC
Visibility: 5000 m

TAF: SADF 211100Z 2112/2212 14005KT 9999 SCT020 TX18/2118Z TN10/2210Z BECMG 2118/2120 09010KT BECMG 2202/2204 02010KT PROB30 TEMPO 2206/2211 5000 BR NSC


Weather observations and forecasts of more than 4000 airports (METAR and TAF reports).

The available stations are represented by yellow and red dots on the map.

Hover mouse over dot to see the name of the station.

Then click to see weather observations and forecasts.

To change the map : click on the green buttons with a black cross to zoom in, on the green button with a dash to zoom out, or on the green arrows for adjacent maps.